Time;durP1;ratioP1;P1;durP2;ratioP2;P2;SDS_P1;SDS_P2;PMS_P1;PMS_P2;Temp;Humidity;BMP_temperature;BMP_pressure;BME280_temperature;BME280_humidity;BME280_pressure;Samples;Min_cycle;Max_cycle;Signal;HPM_P1;HPM_P2
2021/04/08 00:01:30;;;;;;;22.65;10.95;;;25.70;2201.60;;;;;;5090663;28;20020;-70
2021/04/08 00:03:55;;;;;;;20.65;10.15;;;25.70;2201.60;;;;;;5090714;28;20039;-69
2021/04/08 00:06:21;;;;;;;25.60;12.00;;;25.70;2201.60;;;;;;5090381;28;20028;-70
2021/04/08 00:08:47;;;;;;;20.55;10.73;;;25.70;2201.60;;;;;;5090360;28;20032;-69
2021/04/08 00:11:12;;;;;;;20.90;10.50;;;25.70;2201.60;;;;;;5090457;28;20024;-71
2021/04/08 00:13:38;;;;;;;29.75;13.20;;;25.70;2201.60;;;;;;5090596;28;20539;-74
2021/04/08 00:16:04;;;;;;;27.98;12.23;;;25.70;2201.60;;;;;;5090708;28;20028;-68
2021/04/08 00:18:31;;;;;;;26.40;12.13;;;25.70;2201.60;;;;;;5090127;28;20030;-70
2021/04/08 00:20:57;;;;;;;29.00;13.75;;;25.70;2201.60;;;;;;5090573;28;20099;-70
2021/04/08 00:23:22;;;;;;;30.17;13.45;;;25.70;2201.60;;;;;;5090498;28;20104;-70
2021/04/08 00:25:48;;;;;;;19.92;9.98;;;25.70;2201.60;;;;;;5090539;28;20028;-69
2021/04/08 00:28:14;;;;;;;21.90;9.98;;;25.70;2201.60;;;;;;5090256;28;20476;-74
2021/04/08 00:30:43;;;;;;;31.00;12.25;;;25.70;2201.60;;;;;;5089855;28;20036;-71
2021/04/08 00:33:16;;;;;;;29.92;13.07;;;25.70;2201.60;;;;;;5090289;28;20122;-71
2021/04/08 00:35:43;;;;;;;28.77;11.98;;;25.70;2201.60;;;;;;5090440;28;20081;-71
2021/04/08 00:38:09;;;;;;;28.60;12.00;;;25.70;2201.60;;;;;;5090172;28;20024;-70
2021/04/08 00:40:35;;;;;;;28.45;12.18;;;25.70;2201.60;;;;;;5090049;28;20024;-70
2021/04/08 00:43:02;;;;;;;24.52;11.00;;;25.70;2201.60;;;;;;5090376;28;20028;-71
2021/04/08 00:45:28;;;;;;;16.77;8.63;;;25.70;2201.60;;;;;;5090080;28;20276;-71
2021/04/08 00:47:54;;;;;;;15.70;8.80;;;25.70;2201.60;;;;;;5092789;28;20485;-70
2021/04/08 00:50:21;;;;;;;15.85;8.05;;;25.70;2201.60;;;;;;5093822;28;20035;-70
2021/04/08 00:52:58;;;;;;;18.70;8.75;;;25.70;2201.60;;;;;;5093750;28;20055;-70
2021/04/08 00:55:45;;;;;;;31.60;11.65;;;25.70;2201.60;;;;;;5093862;28;20043;-69
2021/04/08 00:58:13;;;;;;;38.65;13.77;;;25.70;2201.60;;;;;;5093330;28;20020;-69
2021/04/08 01:00:42;;;;;;;37.67;12.60;;;25.70;2201.60;;;;;;5093589;28;20036;-70
2021/04/08 01:03:07;;;;;;;42.42;13.68;;;25.70;2201.60;;;;;;5092080;28;20148;-69
2021/04/08 01:05:33;;;;;;;26.45;10.25;;;25.70;2201.60;;;;;;5093733;28;20487;-71
2021/04/08 01:08:00;;;;;;;17.42;8.18;;;25.70;2201.60;;;;;;5093334;28;20027;-71
2021/04/08 01:10:27;;;;;;;21.15;9.05;;;25.70;2201.60;;;;;;5093102;28;20191;-71
2021/04/08 01:13:02;;;;;;;15.10;7.68;;;25.70;2201.60;;;;;;5093341;28;20023;-70
2021/04/08 01:15:29;;;;;;;17.25;8.23;;;25.70;2201.60;;;;;;5093373;28;20024;-70
2021/04/08 01:18:29;;;;;;;18.83;8.75;;;25.70;2201.60;;;;;;5093417;28;20534;-69
2021/04/08 01:21:32;;;;;;;19.67;8.35;;;25.70;2201.60;;;;;;5093100;28;20032;-69
2021/04/08 01:24:26;;;;;;;13.75;7.50;;;25.80;2201.60;;;;;;5090119;28;20089;-70
2021/04/08 01:27:32;;;;;;;23.63;11.40;;;25.80;2201.60;;;;;;5093329;28;20515;-69
2021/04/08 01:30:19;;;;;;;26.48;13.80;;;25.70;2201.60;;;;;;5092684;28;20028;-69
2021/04/08 01:32:49;;;;;;;28.60;13.80;;;25.70;2201.60;;;;;;5093217;28;20024;-69
2021/04/08 01:35:19;;;;;;;22.45;11.35;;;25.70;2201.60;;;;;;5092611;28;20484;-70
2021/04/08 01:37:51;;;;;;;16.15;9.00;;;25.70;2201.60;;;;;;5074969;28;20106;-69
2021/04/08 01:40:18;;;;;;;21.80;11.52;;;25.70;2201.60;;;;;;5092267;28;20008;-70
2021/04/08 01:42:47;;;;;;;32.97;15.25;;;25.70;2201.60;;;;;;5093033;28;20020;-70
2021/04/08 01:45:17;;;;;;;45.70;19.98;;;25.70;2201.60;;;;;;5092862;28;20024;-69
2021/04/08 01:47:45;;;;;;;39.05;18.38;;;25.70;2201.60;;;;;;5092885;28;20047;-70
2021/04/08 01:50:13;;;;;;;34.15;15.35;;;25.60;2201.60;;;;;;5092183;28;20020;-68
2021/04/08 01:52:42;;;;;;;34.08;15.57;;;25.60;2201.60;;;;;;5092851;28;20089;-68
2021/04/08 01:55:09;;;;;;;40.47;17.27;;;0.90;2201.60;;;;;;5092276;28;20477;-69
2021/04/08 01:57:37;;;;;;;36.13;15.90;;;0.90;2201.60;;;;;;5092539;28;20153;-68
2021/04/08 02:00:08;;;;;;;30.80;15.15;;;0.90;2201.60;;;;;;5091570;28;20020;-69
2021/04/08 02:02:35;;;;;;;25.52;11.50;;;0.90;2201.60;;;;;;5092948;28;20028;-68
2021/04/08 02:05:01;;;;;;;20.88;11.00;;;0.80;2201.60;;;;;;5092636;28;20032;-68
2021/04/08 02:07:27;;;;;;;18.92;9.20;;;0.80;2201.60;;;;;;5092653;28;20024;-68
2021/04/08 02:09:54;;;;;;;22.60;10.27;;;0.80;2201.60;;;;;;5091949;28;20026;-68
2021/04/08 02:12:20;;;;;;;24.83;10.90;;;0.70;2201.60;;;;;;5092028;28;20556;-69
2021/04/08 02:14:47;;;;;;;23.80;11.63;;;0.70;2201.60;;;;;;5092359;28;20110;-70
2021/04/08 02:17:16;;;;;;;24.17;11.70;;;0.60;2201.60;;;;;;5092070;28;20020;-68
2021/04/08 02:19:45;;;;;;;30.05;13.05;;;0.60;2201.60;;;;;;5092016;28;20070;-69
2021/04/08 02:22:11;;;;;;;40.25;16.17;;;0.60;2201.60;;;;;;5092088;28;20048;-68
2021/04/08 02:24:38;;;;;;;40.97;19.35;;;0.60;2201.60;;;;;;5091801;28;20023;-69
2021/04/08 02:27:05;;;;;;;39.25;19.45;;;0.60;2201.60;;;;;;5092213;28;20043;-70
2021/04/08 02:29:32;;;;;;;30.05;15.60;;;0.50;2201.60;;;;;;5091452;28;20029;-72
2021/04/08 02:32:01;;;;;;;28.38;13.20;;;0.50;2201.60;;;;;;5091896;28;20035;-69
2021/04/08 02:34:28;;;;;;;38.75;16.70;;;0.50;2201.60;;;;;;5091703;28;20056;-70
2021/04/08 02:36:54;;;;;;;44.35;17.98;;;0.40;2201.60;;;;;;5091875;28;20031;-69
2021/04/08 02:39:19;;;;;;;59.45;21.52;;;0.40;2201.60;;;;;;5091338;28;20380;-70
2021/04/08 02:41:46;;;;;;;103.05;33.97;;;0.30;2201.60;;;;;;5091840;28;20099;-70
2021/04/08 02:44:16;;;;;;;136.23;40.70;;;0.30;2201.60;;;;;;5091521;28;20491;-71
2021/04/08 02:46:42;;;;;;;104.63;35.08;;;0.30;2201.60;;;;;;5091597;28;20028;-71
2021/04/08 02:49:09;;;;;;;112.68;37.80;;;0.30;2201.60;;;;;;5091288;28;20084;-70
2021/04/08 02:52:00;;;;;;;149.23;46.17;;;0.40;2201.60;;;;;;5091675;28;20103;-70
2021/04/08 02:54:28;;;;;;;;;;;0.60;2201.60;;;;;;5092173;28;20024;-71
2021/04/08 02:56:59;;;;;;;130.65;42.72;;;0.60;2201.60;;;;;;5091243;28;20421;-70
2021/04/08 02:59:37;;;;;;;95.63;34.20;;;0.70;2201.60;;;;;;5091204;28;20062;-70
2021/04/08 03:02:07;;;;;;;58.20;23.58;;;0.70;2201.60;;;;;;5091236;28;20073;-68
2021/04/08 03:04:40;;;;;;;51.45;21.10;;;0.70;2201.60;;;;;;5091382;28;20392;-71
2021/04/08 03:07:07;;;;;;;41.10;17.10;;;0.70;2201.60;;;;;;5091161;28;20020;-70
2021/04/08 03:09:36;;;;;;;42.88;18.15;;;0.70;2201.60;;;;;;5090722;28;20427;-72
2021/04/08 03:12:05;;;;;;;74.38;27.48;;;0.80;2201.60;;;;;;5091096;28;20028;-70
2021/04/08 03:14:41;;;;;;;110.03;37.50;;;0.80;2201.60;;;;;;5090476;28;20477;-71
2021/04/08 03:17:08;;;;;;;98.43;34.47;;;0.70;2201.60;;;;;;5091221;28;20130;-71
2021/04/08 03:19:37;;;;;;;89.30;33.22;;;0.60;2201.60;;;;;;5090941;28;20050;-70
2021/04/08 03:22:04;;;;;;;54.55;22.20;;;0.60;2201.60;;;;;;5091260;28;20016;-70
2021/04/08 03:24:31;;;;;;;39.90;17.17;;;0.50;2201.60;;;;;;5090762;28;20039;-70
2021/04/08 03:26:57;;;;;;;33.22;14.63;;;0.40;2201.60;;;;;;5091048;28;20075;-71
2021/04/08 03:29:24;;;;;;;31.30;14.25;;;0.40;2201.60;;;;;;5090822;28;20051;-70
2021/04/08 03:31:50;;;;;;;27.77;12.65;;;0.30;2201.60;;;;;;5090915;28;20028;-70
2021/04/08 03:34:16;;;;;;;27.95;12.48;;;0.30;2201.60;;;;;;5090753;28;20048;-70
2021/04/08 03:36:43;;;;;;;30.77;12.88;;;0.20;2201.60;;;;;;5090634;28;20089;-70
2021/04/08 03:39:10;;;;;;;33.20;15.55;;;0.20;2201.60;;;;;;5090521;28;20085;-71
2021/04/08 03:41:40;;;;;;;43.35;18.35;;;0.20;2201.60;;;;;;5090616;28;20559;-70
2021/04/08 03:44:08;;;;;;;44.78;18.85;;;0.10;2201.60;;;;;;5090995;28;20028;-69
2021/04/08 03:46:38;;;;;;;41.20;18.40;;;0.10;2201.60;;;;;;5090469;28;20020;-69
2021/04/08 03:49:06;;;;;;;40.13;18.85;;;0.10;2201.60;;;;;;5090605;28;20598;-73
2021/04/08 03:51:34;;;;;;;34.08;16.83;;;0.10;2201.60;;;;;;5090551;28;20473;-69
2021/04/08 03:54:00;;;;;;;33.95;17.60;;;0.10;2201.60;;;;;;5090761;28;20028;-70
2021/04/08 03:56:28;;;;;;;32.35;17.40;;;0.00;2201.60;;;;;;5090549;28;20016;-69
2021/04/08 03:58:54;;;;;;;26.63;14.85;;;0.10;2201.60;;;;;;5090424;28;20380;-70
2021/04/08 04:01:20;;;;;;;23.08;11.63;;;0.00;2201.60;;;;;;5090713;28;20020;-71
2021/04/08 04:03:47;;;;;;;21.23;10.70;;;0.00;2201.60;;;;;;5090677;28;20016;-71
2021/04/08 04:06:13;;;;;;;18.50;10.23;;;0.00;2201.60;;;;;;5090447;28;20024;-70
2021/04/08 04:08:40;;;;;;;26.05;15.00;;;0.10;2201.60;;;;;;5090089;28;20027;-71
2021/04/08 04:11:06;;;;;;;17.83;10.75;;;0.10;2201.60;;;;;;5090390;28;20042;-71
2021/04/08 04:13:33;;;;;;;21.70;12.95;;;0.10;2201.60;;;;;;5090493;28;20020;-70
2021/04/08 04:16:01;;;;;;;37.72;20.77;;;0.20;2201.60;;;;;;5090086;28;20024;-71
2021/04/08 04:18:26;;;;;;;73.22;35.42;;;0.20;2201.60;;;;;;5090510;28;20020;-69
2021/04/08 04:20:52;;;;;;;65.15;32.83;;;0.30;2201.60;;;;;;5090114;28;20392;-70
2021/04/08 04:23:18;;;;;;;49.05;24.58;;;0.40;2201.60;;;;;;5093794;28;20020;-70
2021/04/08 04:25:43;;;;;;;46.28;23.00;;;0.50;2201.60;;;;;;5094700;28;20545;-70
2021/04/08 04:28:09;;;;;;;50.42;23.75;;;0.50;2201.60;;;;;;5094534;28;20098;-70
2021/04/08 04:30:35;;;;;;;51.15;26.15;;;0.60;2201.60;;;;;;5094503;28;20586;-70
2021/04/08 04:33:01;;;;;;;49.47;25.65;;;0.60;2201.60;;;;;;5094350;28;20058;-70
2021/04/08 04:35:27;;;;;;;55.42;27.00;;;0.80;2201.60;;;;;;5094062;28;20039;-70
2021/04/08 04:37:53;;;;;;;47.80;25.73;;;0.80;2201.60;;;;;;5093878;28;20023;-70
2021/04/08 04:40:19;;;;;;;43.20;22.35;;;0.90;2201.60;;;;;;5093798;28;20096;-70
2021/04/08 04:42:45;;;;;;;61.90;29.50;;;0.90;2201.60;;;;;;5093949;28;20031;-70
2021/04/08 04:45:11;;;;;;;52.95;26.55;;;25.80;2201.60;;;;;;5093839;28;20024;-71
2021/04/08 04:47:41;;;;;;;50.55;25.30;;;25.70;2201.60;;;;;;5093869;28;20077;-70
2021/04/08 04:50:12;;;;;;;43.58;22.90;;;25.70;2201.60;;;;;;5093585;28;20077;-70
2021/04/08 04:52:38;;;;;;;48.28;23.73;;;25.60;2201.60;;;;;;5093883;28;20132;-69
2021/04/08 04:55:05;;;;;;;44.13;23.42;;;25.70;2201.60;;;;;;5093683;28;20020;-70
2021/04/08 04:57:31;;;;;;;49.33;25.92;;;25.80;2201.60;;;;;;5093605;28;20019;-69
2021/04/08 04:59:57;;;;;;;43.38;22.67;;;26.10;2201.60;;;;;;5093728;28;20405;-70
2021/04/08 05:02:22;;;;;;;42.20;20.67;;;51.40;2227.20;;;;;;5093748;28;20370;-70
2021/04/08 05:04:48;;;;;;;51.47;25.38;;;76.80;2227.20;;;;;;5093873;28;20059;-69
2021/04/08 05:07:14;;;;;;;54.03;27.40;;;77.30;2227.20;;;;;;5093189;28;20019;-70
2021/04/08 05:09:40;;;;;;;57.17;28.95;;;77.20;2227.20;;;;;;5093316;28;20028;-70
2021/04/08 05:12:06;;;;;;;60.67;30.17;;;102.40;2227.20;;;;;;5093345;28;20070;-69
2021/04/08 05:14:32;;;;;;;102.72;41.78;;;102.50;2227.20;;;;;;5093384;28;20099;-70
2021/04/08 05:16:59;;;;;;;60.25;29.92;;;77.70;2227.20;;;;;;5093065;28;20039;-70
2021/04/08 05:19:26;;;;;;;42.17;22.58;;;77.50;2227.20;;;;;;5093090;28;20012;-69
2021/04/08 05:21:51;;;;;;;33.10;17.73;;;77.30;2227.20;;;;;;5093114;28;20028;-69
2021/04/08 05:24:17;;;;;;;36.00;18.70;;;77.40;2227.20;;;;;;5093072;28;20023;-69
2021/04/08 05:26:43;;;;;;;34.67;18.33;;;103.10;2227.20;;;;;;5091061;28;20420;-70
2021/04/08 05:29:09;;;;;;;33.00;19.42;;;128.80;2201.60;;;;;;5086614;28;20107;-70
2021/04/08 05:31:35;;;;;;;33.80;19.20;;;154.50;2048.00;;;;;;5092888;28;20036;-71
2021/04/08 05:34:00;;;;;;;32.45;19.35;;;179.80;1945.60;;;;;;5092774;28;20044;-69
2021/04/08 05:36:26;;;;;;;29.55;17.30;;;205.20;1843.20;;;;;;5092871;28;20027;-71
2021/04/08 05:38:52;;;;;;;26.83;16.40;;;230.70;1766.40;;;;;;5092584;28;20012;-70
2021/04/08 05:41:18;;;;;;;52.72;33.45;;;231.10;1715.20;;;;;;5092695;28;20071;-70
2021/04/08 05:43:44;;;;;;;22.83;15.88;;;256.50;1664.00;;;;;;5092932;28;20020;-70
2021/04/08 05:46:10;;;;;;;21.10;14.65;;;281.70;1612.80;;;;;;5092899;28;20135;-69
2021/04/08 05:48:37;;;;;;;23.58;15.90;;;282.30;1561.60;;;;;;5092224;28;20028;-70
2021/04/08 05:51:03;;;;;;;53.53;41.30;;;307.20;1561.60;;;;;;5092834;28;20055;-70
2021/04/08 05:53:29;;;;;;;27.40;20.67;;;308.00;1484.80;;;;;;5092608;28;20020;-71
2021/04/08 05:55:56;;;;;;;22.40;15.70;;;333.30;1459.20;;;;;;5092721;28;20024;-70
2021/04/08 05:58:21;;;;;;;31.10;22.77;;;358.60;1382.40;;;;;;5092326;28;20020;-71
2021/04/08 06:00:47;;;;;;;20.80;10.65;;;359.20;1331.20;;;;;;5092303;28;20027;-69
2021/04/08 06:03:13;;;;;;;20.63;11.73;;;359.20;1305.60;;;;;;5092305;28;20494;-69
2021/04/08 06:05:40;;;;;;;18.27;11.98;;;384.00;1305.60;;;;;;5092388;28;20130;-70
2021/04/08 06:08:06;;;;;;;16.35;12.45;;;384.40;1254.40;;;;;;5092468;28;20020;-69
2021/04/08 06:10:33;;;;;;;12.20;8.50;;;409.90;1254.40;;;;;;5091774;28;20460;-69
2021/04/08 06:12:59;;;;;;;10.45;8.93;;;410.50;1203.20;;;;;;5092132;28;20434;-69
2021/04/08 06:15:29;;;;;;;13.00;9.98;;;435.50;1177.60;;;;;;5092337;28;20042;-69
2021/04/08 06:17:55;;;;;;;11.23;9.63;;;435.80;1152.00;;;;;;5092290;28;20051;-70
2021/04/08 06:20:21;;;;;;;13.23;10.98;;;460.80;1177.60;;;;;;5092164;28;20428;-69
2021/04/08 06:22:46;;;;;;;17.27;14.88;;;461.40;1126.40;;;;;;5092017;28;20027;-69
2021/04/08 06:25:12;;;;;;;14.15;9.02;;;461.60;1100.80;;;;;;5092168;28;20103;-70
2021/04/08 06:27:38;;;;;;;12.25;8.98;;;461.70;1075.20;;;;;;5092065;28;20052;-69
2021/04/08 06:30:05;;;;;;;16.92;13.32;;;486.70;1049.60;;;;;;5084491;28;20540;-70
2021/04/08 06:32:31;;;;;;;16.80;14.52;;;487.10;1024.00;;;;;;5079897;28;20032;-68
2021/04/08 06:34:57;;;;;;;12.80;11.00;;;512.40;998.40;;;;;;5072476;28;20389;-68
2021/04/08 06:37:22;;;;;;;18.20;12.98;;;512.30;998.40;;;;;;5079548;28;20074;-68
2021/04/08 06:39:48;;;;;;;15.48;10.73;;;512.90;972.80;;;;;;5084481;28;20031;-71
2021/04/08 06:42:18;;;;;;;13.77;10.02;;;537.60;972.80;;;;;;5072085;28;20067;-69
2021/04/08 06:44:49;;;;;;;8.32;7.10;;;563.20;972.80;;;;;;5074033;28;20028;-69
2021/04/08 06:47:28;;;;;;;12.80;8.55;;;563.70;947.20;;;;;;5091698;28;20052;-69
2021/04/08 06:49:58;;;;;;;17.08;11.80;;;563.50;947.20;;;;;;5073715;28;20103;-66
2021/04/08 06:52:25;;;;;;;16.48;12.73;;;512.90;947.20;;;;;;5091679;28;20035;-67
2021/04/08 06:54:52;;;;;;;16.08;12.40;;;537.90;947.20;;;;;;5091165;28;20031;-68
2021/04/08 06:57:18;;;;;;;14.55;10.63;;;538.40;921.60;;;;;;5073400;28;20066;-65
2021/04/08 06:59:48;;;;;;;14.07;9.93;;;538.50;921.60;;;;;;5078867;28;20485;-68
2021/04/08 07:02:20;;;;;;;10.40;8.33;;;564.10;921.60;;;;;;5072159;28;20551;-70
2021/04/08 07:04:46;;;;;;;9.00;7.60;;;589.50;870.40;;;;;;5084201;28;20025;-66
2021/04/08 07:07:14;;;;;;;12.55;9.52;;;614.50;844.80;;;;;;5091144;28;20086;-67
2021/04/08 07:09:39;;;;;;;11.32;9.40;;;615.10;819.20;;;;;;5091119;28;20042;-68
2021/04/08 07:12:06;;;;;;;10.52;9.52;;;589.60;844.80;;;;;;5091190;28;20472;-68
2021/04/08 07:14:31;;;;;;;13.30;11.90;;;614.90;819.20;;;;;;5091038;28;20618;-69
2021/04/08 07:16:57;;;;;;;9.95;6.97;;;614.70;844.80;;;;;;5091329;28;20111;-68
2021/04/08 07:19:23;;;;;;;7.50;5.80;;;640.90;768.00;;;;;;5090773;28;20020;-68
2021/04/08 07:21:48;;;;;;;13.18;8.52;;;665.70;793.60;;;;;;5091219;28;20024;-68
2021/04/08 07:24:19;;;;;;;11.50;8.52;;;640.30;768.00;;;;;;5090759;28;20024;-67
2021/04/08 07:27:00;;;;;;;12.88;10.60;;;614.90;819.20;;;;;;5090847;28;20419;-68
2021/04/08 07:29:40;;;;;;;8.27;6.30;;;615.20;793.60;;;;;;5090990;28;20023;-68
2021/04/08 07:32:12;;;;;;;8.40;6.28;;;640.00;768.00;;;;;;5091035;28;20052;-68
2021/04/08 07:34:53;;;;;;;6.70;4.78;;;666.00;768.00;;;;;;5090655;28;20048;-69
2021/04/08 07:37:24;;;;;;;8.50;6.60;;;666.00;768.00;;;;;;5091024;28;20024;-68
2021/04/08 07:39:50;;;;;;;26.80;17.42;;;640.80;742.40;;;;;;5090326;28;20573;-68
2021/04/08 07:42:18;;;;;;;14.60;9.57;;;563.90;870.40;;;;;;5090748;28;20032;-68
2021/04/08 07:44:53;;;;;;;13.30;10.20;;;537.80;896.00;;;;;;5090743;28;20016;-68
2021/04/08 07:47:26;;;;;;;8.57;6.15;;;589.00;844.80;;;;;;5090698;28;20057;-68
2021/04/08 07:50:06;;;;;;;8.45;6.40;;;640.90;768.00;;;;;;5090173;28;20499;-68
2021/04/08 07:52:36;;;;;;;6.95;5.55;;;691.60;768.00;;;;;;5090766;28;20069;-68
2021/04/08 07:55:07;;;;;;;8.50;6.40;;;665.80;768.00;;;;;;5090500;28;20094;-68
2021/04/08 07:57:50;;;;;;;8.55;6.80;;;665.70;742.40;;;;;;5093119;28;20385;-68
2021/04/08 08:00:19;;;;;;;7.55;5.55;;;640.90;742.40;;;;;;5076741;28;20082;-68
2021/04/08 08:02:45;;;;;;;10.40;7.53;;;691.60;768.00;;;;;;5095191;28;20016;-68
2021/04/08 08:05:25;;;;;;;8.38;6.95;;;640.40;768.00;;;;;;5094611;28;20426;-69
2021/04/08 08:07:53;;;;;;;8.35;6.95;;;717.10;768.00;;;;;;5094869;28;20031;-69
2021/04/08 08:10:25;;;;;;;10.30;7.40;;;717.50;742.40;;;;;;5094248;28;20059;-69
2021/04/08 08:12:52;;;;;;;7.13;5.95;;;717.50;742.40;;;;;;5094694;28;20028;-68
2021/04/08 08:15:27;;;;;;;6.63;4.97;;;716.80;768.00;;;;;;5094682;28;20028;-68
2021/04/08 08:17:56;;;;;;;8.35;7.10;;;691.20;768.00;;;;;;5093876;28;20024;-68
2021/04/08 08:20:24;;;;;;;6.13;4.68;;;717.20;742.40;;;;;;5093801;28;20071;-67
2021/04/08 08:22:50;;;;;;;10.85;5.05;;;666.00;742.40;;;;;;5094346;28;20031;-68
2021/04/08 08:25:28;;;;;;;7.82;5.20;;;691.40;768.00;;;;;;5094411;28;20081;-68
2021/04/08 08:27:55;;;;;;;6.07;4.78;;;742.40;768.00;;;;;;5094431;28;20016;-67
2021/04/08 08:30:31;;;;;;;7.13;5.00;;;691.60;742.40;;;;;;5094161;28;20020;-68
2021/04/08 08:33:05;;;;;;;4.85;3.60;;;692.10;716.80;;;;;;5094040;28;20049;-69
2021/04/08 08:35:31;;;;;;;7.30;5.72;;;666.20;742.40;;;;;;5081907;28;20123;-68
2021/04/08 08:38:05;;;;;;;7.78;5.53;;;588.90;793.60;;;;;;5086356;28;20107;-67
2021/04/08 08:40:31;;;;;;;7.68;6.50;;;537.80;870.40;;;;;;5084437;28;20032;-69
2021/04/08 08:42:57;;;;;;;10.77;7.35;;;589.50;793.60;;;;;;5093344;28;20594;-68
2021/04/08 08:45:23;;;;;;;8.25;6.63;;;691.60;742.40;;;;;;5090548;28;20020;-68
2021/04/08 08:47:51;;;;;;;9.38;7.70;;;743.10;691.20;;;;;;5092688;28;20400;-68
2021/04/08 08:50:19;;;;;;;12.18;8.55;;;819.40;665.60;;;;;;5092661;28;20499;-69
2021/04/08 08:52:48;;;;;;;8.27;6.50;;;819.70;665.60;;;;;;5093485;28;20178;-69
2021/04/08 08:55:16;;;;;;;8.32;6.60;;;819.80;640.00;;;;;;5093636;28;20054;-67
2021/04/08 08:57:46;;;;;;;6.57;5.20;;;820.10;640.00;;;;;;5093353;28;20024;-67
2021/04/08 09:00:15;;;;;;;6.43;5.57;;;819.80;665.60;;;;;;5093370;28;20483;-67
2021/04/08 09:02:42;;;;;;;13.57;11.00;;;819.30;665.60;;;;;;5093441;28;20111;-67
2021/04/08 09:05:13;;;;;;;8.10;6.45;;;819.70;665.60;;;;;;5089419;28;20029;-67
2021/04/08 09:07:45;;;;;;;12.68;11.32;;;819.80;614.40;;;;;;5073780;28;20519;-67
2021/04/08 09:10:13;;;;;;;10.38;8.25;;;717.20;691.20;;;;;;5077214;28;20419;-67
2021/04/08 09:12:40;;;;;;;12.40;9.70;;;666.20;768.00;;;;;;5087029;28;20032;-67
2021/04/08 09:15:07;;;;;;;22.77;20.58;;;563.30;819.20;;;;;;5081235;28;20028;-69
2021/04/08 09:17:40;;;;;;;11.30;8.65;;;615.20;742.40;;;;;;5092969;28;20418;-67
2021/04/08 09:20:08;;;;;;;23.85;15.35;;;640.20;742.40;;;;;;5092782;28;20024;-68
2021/04/08 09:22:34;;;;;;;15.32;10.52;;;615.00;716.80;;;;;;5092743;28;20485;-70
2021/04/08 09:25:00;;;;;;;7.28;5.38;;;512.90;793.60;;;;;;5074224;28;20028;-67
2021/04/08 09:27:26;;;;;;;15.00;13.15;;;487.00;870.40;;;;;;5086083;28;20055;-67
2021/04/08 09:29:57;;;;;;;8.52;6.57;;;435.90;921.60;;;;;;5091668;28;20095;-70
2021/04/08 09:32:29;;;;;;;5.57;4.05;;;512.30;896.00;;;;;;5092927;28;20031;-72
2021/04/08 09:35:06;;;;;;;14.88;13.38;;;640.80;716.80;;;;;;5092718;28;20051;-70
2021/04/08 09:37:44;;;;;;;9.10;7.68;;;717.60;691.20;;;;;;5092056;28;20469;-72
2021/04/08 09:40:37;;;;;;;9.13;7.95;;;717.60;691.20;;;;;;5091398;28;20035;-69
2021/04/08 09:43:05;;;;;;;7.57;5.30;;;589.10;768.00;;;;;;5082179;28;20102;-69
2021/04/08 09:45:33;;;;;;;6.20;4.80;;;512.50;844.80;;;;;;5077997;28;20038;-69
2021/04/08 09:48:11;;;;;;;10.38;7.05;;;461.20;896.00;;;;;;5071459;28;20500;-69
2021/04/08 09:51:00;;;;;;;10.05;6.97;;;410.10;972.80;;;;;;5070214;28;20033;-69
2021/04/08 09:53:38;;;;;;;7.45;4.60;;;359.10;1049.60;;;;;;5073670;28;20458;-70
2021/04/08 09:56:07;;;;;;;4.57;3.05;;;384.40;1024.00;;;;;;5071744;28;20299;-70
2021/04/08 09:58:35;;;;;;;5.20;3.47;;;384.90;998.40;;;;;;5075894;28;20028;-69
2021/04/08 10:01:19;;;;;;;7.15;4.28;;;384.60;1049.60;;;;;;5074915;28;20024;-68
2021/04/08 10:03:45;;;;;;;6.97;4.90;;;384.20;1049.60;;;;;;5076285;28;20029;-68
2021/04/08 10:06:18;;;;;;;5.43;4.03;;;358.50;1100.80;;;;;;5072512;28;20029;-68
2021/04/08 10:08:45;;;;;;;6.53;4.00;;;358.50;1075.20;;;;;;5073431;28;20021;-68
2021/04/08 10:11:12;;;;;;;6.82;4.60;;;333.60;1075.20;;;;;;5074069;28;20029;-67
2021/04/08 10:13:40;;;;;;;6.43;4.75;;;333.10;1126.40;;;;;;5074468;28;20047;-67
2021/04/08 10:16:13;;;;;;;5.82;4.15;;;333.40;1126.40;;;;;;5081262;28;20027;-67
2021/04/08 10:18:40;;;;;;;6.60;4.30;;;333.60;1126.40;;;;;;5072342;28;20125;-68
2021/04/08 10:21:16;;;;;;;5.55;3.90;;;333.50;1126.40;;;;;;5069922;28;20074;-68
2021/04/08 10:23:47;;;;;;;4.90;3.28;;;358.60;1100.80;;;;;;5070133;28;20025;-67
2021/04/08 10:26:18;;;;;;;7.88;6.15;;;359.00;1075.20;;;;;;5072722;28;20020;-66
2021/04/08 10:28:55;;;;;;;5.75;3.67;;;359.00;1049.60;;;;;;5086273;28;20075;-68
2021/04/08 10:31:30;;;;;;;10.35;6.43;;;358.90;1049.60;;;;;;5054718;28;20017;-68
2021/04/08 10:34:05;;;;;;;12.48;7.53;;;358.50;1100.80;;;;;;5071067;28;20040;-67
2021/04/08 10:36:55;;;;;;;6.70;4.25;;;358.60;1126.40;;;;;;5073189;28;20476;-69
2021/04/08 10:39:26;;;;;;;8.45;5.88;;;358.80;1126.40;;;;;;5074793;28;20481;-68
2021/04/08 10:41:56;;;;;;;4.90;2.90;;;358.80;1100.80;;;;;;5072034;28;20440;-68
2021/04/08 10:44:36;;;;;;;4.45;2.60;;;358.80;1049.60;;;;;;5071902;28;20043;-68
2021/04/08 10:47:08;;;;;;;6.18;2.65;;;358.80;1024.00;;;;;;5070845;28;20052;-67
2021/04/08 10:49:57;;;;;;;6.70;4.55;;;359.10;998.40;;;;;;5070242;28;20485;-69
2021/04/08 10:52:38;;;;;;;6.00;3.03;;;384.10;1024.00;;;;;;5069480;28;20433;-67
2021/04/08 10:55:07;;;;;;;7.13;3.67;;;384.10;1024.00;;;;;;5074852;28;20106;-68
2021/04/08 10:57:32;;;;;;;4.68;2.50;;;384.00;998.40;;;;;;5073992;28;20017;-67
2021/04/08 10:59:59;;;;;;;5.82;3.83;;;359.20;998.40;;;;;;5074456;28;20113;-69
2021/04/08 11:02:36;;;;;;;5.25;2.72;;;384.00;1024.00;;;;;;5070997;28;20021;-71
2021/04/08 11:05:27;;;;;;;5.95;2.90;;;384.00;972.80;;;;;;5077400;28;20028;-68
2021/04/08 11:07:57;;;;;;;5.78;3.42;;;384.00;972.80;;;;;;5070750;28;20083;-70
2021/04/08 11:10:29;;;;;;;5.73;3.40;;;359.20;972.80;;;;;;5069726;28;20512;-68
2021/04/08 11:12:56;;;;;;;5.10;2.70;;;359.00;998.40;;;;;;5071131;28;20135;-68
2021/04/08 11:15:25;;;;;;;4.97;2.85;;;384.00;972.80;;;;;;5071367;28;20031;-71
2021/04/08 11:18:01;;;;;;;6.15;2.60;;;384.00;921.60;;;;;;5071181;28;20025;-70
2021/04/08 11:20:31;;;;;;;3.83;2.35;;;359.00;947.20;;;;;;5066203;28;20028;-67
2021/04/08 11:22:58;;;;;;;4.03;2.30;;;359.00;947.20;;;;;;5077396;28;20077;-67
2021/04/08 11:25:26;;;;;;;4.70;2.35;;;359.10;947.20;;;;;;5074652;28;20024;-68
2021/04/08 11:27:54;;;;;;;3.70;2.22;;;359.10;947.20;;;;;;5084162;28;20101;-67
2021/04/08 11:30:48;;;;;;;6.57;3.13;;;359.00;921.60;;;;;;5082463;28;20161;-71
2021/04/08 11:33:20;;;;;;;8.77;5.28;;;359.20;972.80;;;;;;5077937;28;20469;-70
2021/04/08 11:35:46;;;;;;;9.23;5.75;;;359.00;947.20;;;;;;5082047;28;20039;-68
2021/04/08 11:38:20;;;;;;;6.20;4.43;;;359.00;947.20;;;;;;5074801;28;20028;-68
2021/04/08 11:40:58;;;;;;;4.45;2.60;;;359.20;947.20;;;;;;5071673;28;20047;-67
2021/04/08 11:43:28;;;;;;;5.57;3.20;;;384.20;947.20;;;;;;5074685;28;20070;-67
2021/04/08 11:46:24;;;;;;;4.55;2.70;;;359.30;921.60;;;;;;5071114;28;20099;-68
2021/04/08 11:48:50;;;;;;;5.75;2.47;;;358.80;972.80;;;;;;5074352;28;20024;-69
2021/04/08 11:51:21;;;;;;;4.07;2.70;;;333.70;998.40;;;;;;5076564;28;20104;-69
2021/04/08 11:53:47;;;;;;;4.43;2.55;;;333.70;1049.60;;;;;;5078313;28;20532;-68
2021/04/08 11:56:28;;;;;;;4.15;2.90;;;358.50;972.80;;;;;;5079596;28;20119;-68
2021/04/08 11:59:15;;;;;;;5.30;3.45;;;358.50;998.40;;;;;;5072929;28;20419;-69
2021/04/08 12:01:46;;;;;;;4.93;2.70;;;333.70;998.40;;;;;;5076146;28;20025;-68
2021/04/08 12:04:14;;;;;;;;;;;333.60;1024.00;;;;;;5082032;28;20032;-68
2021/04/08 12:06:42;;;;;;;4.15;2.55;;;333.60;972.80;;;;;;5088153;28;19995;-67
2021/04/08 12:09:08;;;;;;;4.25;2.65;;;333.60;998.40;;;;;;5088248;28;20032;-67
2021/04/08 12:11:49;;;;;;;4.20;2.30;;;333.30;998.40;;;;;;5088128;28;20377;-67
2021/04/08 12:14:15;;;;;;;4.45;2.53;;;333.10;998.40;;;;;;5081887;28;20380;-69
2021/04/08 12:16:40;;;;;;;4.13;2.42;;;333.40;998.40;;;;;;5074244;28;20024;-68
2021/04/08 12:19:06;;;;;;;3.60;2.20;;;333.40;998.40;;;;;;5071998;28;20025;-68
2021/04/08 12:21:32;;;;;;;4.47;2.40;;;333.60;1024.00;;;;;;5073308;28;20075;-68
2021/04/08 12:24:07;;;;;;;4.47;2.70;;;333.60;1024.00;;;;;;5090120;28;20044;-69
2021/04/08 12:26:38;;;;;;;5.28;3.03;;;358.40;1049.60;;;;;;5083697;28;20043;-68
2021/04/08 12:29:05;;;;;;;5.00;3.05;;;358.40;1049.60;;;;;;5069723;28;20009;-67